Time;durP1;ratioP1;P1;durP2;ratioP2;P2;SDS_P1;SDS_P2;PMS_P1;PMS_P2;Temp;Humidity;BMP_temperature;BMP_pressure;BME280_temperature;BME280_humidity;BME280_pressure;Samples;Min_cycle;Max_cycle;Signal;HPM_P1;HPM_P2
2024/03/11 00:03:56;;;;;;;0.20;0.10;;;;;;;;;;10249585;28;20070;-77
2024/03/11 00:09:03;;;;;;;0.30;0.10;;;;;;;;;;10256922;28;20516;-77
2024/03/11 00:14:06;;;;;;;0.60;0.22;;;;;;;;;;10251369;28;20042;-76
2024/03/11 00:19:10;;;;;;;0.43;0.40;;;;;;;;;;10245481;28;20039;-76
2024/03/11 00:24:14;;;;;;;0.15;0.15;;;;;;;;;;10246390;28;20039;-77
2024/03/11 00:29:19;;;;;;;0.32;0.32;;;;;;;;;;10255994;28;20065;-76
2024/03/11 00:34:22;;;;;;;0.00;0.00;;;;;;;;;;10247500;28;20034;-76
2024/03/11 00:39:27;;;;;;;0.35;0.25;;;;;;;;;;10261564;28;20050;-76
2024/03/11 00:44:31;;;;;;;0.95;0.10;;;;;;;;;;10246818;28;20078;-77
2024/03/11 00:49:36;;;;;;;1.55;0.30;;;;;;;;;;10247001;28;20117;-78
2024/03/11 00:54:42;;;;;;;0.45;0.30;;;;;;;;;;10249562;28;20055;-77
2024/03/11 00:59:46;;;;;;;0.45;0.32;;;;;;;;;;10247388;28;20058;-78
2024/03/11 01:04:52;;;;;;;0.47;0.40;;;;;;;;;;10249110;28;20145;-77
2024/03/11 01:09:59;;;;;;;0.28;0.20;;;;;;;;;;10233711;28;20061;-77
2024/03/11 01:15:04;;;;;;;;;;;;;;;;;;10251480;28;20122;-78
2024/03/11 01:20:09;;;;;;;;;;;;;;;;;;10249464;28;19926;-77
2024/03/11 01:25:20;;;;;;;0.55;0.32;;;;;;;;;;10248381;28;20021;-77
2024/03/11 01:30:24;;;;;;;0.20;0.20;;;;;;;;;;10257713;28;20063;-75
2024/03/11 01:35:27;;;;;;;1.10;0.50;;;;;;;;;;10254556;28;20468;-75
2024/03/11 01:40:37;;;;;;;17.15;4.75;;;;;;;;;;10257672;28;20074;-76
2024/03/11 01:45:43;;;;;;;1.63;0.40;;;;;;;;;;10253932;28;20047;-76
2024/03/11 01:50:48;;;;;;;1.17;0.60;;;;;;;;;;10259002;28;20070;-76
2024/03/11 01:55:53;;;;;;;2.88;1.10;;;;;;;;;;10253023;28;20619;-77
2024/03/11 02:01:00;;;;;;;0.70;0.47;;;;;;;;;;10234464;28;20254;-76
2024/03/11 02:06:06;;;;;;;0.17;0.10;;;;;;;;;;10255105;28;20424;-77
2024/03/11 02:11:12;;;;;;;0.93;0.20;;;;;;;;;;10253280;28;20046;-76
2024/03/11 02:16:15;;;;;;;0.20;0.20;;;;;;;;;;10248013;28;20047;-78
2024/03/11 02:21:21;;;;;;;0.10;0.10;;;;;;;;;;10256936;28;20479;-77
2024/03/11 02:26:27;;;;;;;0.20;0.13;;;;;;;;;;10257491;28;20510;-77
2024/03/11 02:31:30;;;;;;;0.47;0.13;;;;;;;;;;10246275;28;20085;-76
2024/03/11 02:36:36;;;;;;;0.17;0.17;;;;;;;;;;10260721;28;20158;-76
2024/03/11 02:41:40;;;;;;;0.10;0.10;;;;;;;;;;10254454;28;20149;-80
2024/03/11 02:46:43;;;;;;;0.68;0.20;;;;;;;;;;10254267;28;20043;-77
2024/03/11 02:51:49;;;;;;;0.05;0.03;;;;;;;;;;10262379;28;20117;-76
2024/03/11 02:56:54;;;;;;;0.43;0.20;;;;;;;;;;10263953;28;20094;-77
2024/03/11 03:01:57;;;;;;;0.20;0.00;;;;;;;;;;10253813;28;20054;-76
2024/03/11 03:07:00;;;;;;;2.47;0.30;;;;;;;;;;10248409;28;20117;-76
2024/03/11 03:12:05;;;;;;;0.22;0.17;;;;;;;;;;10247505;28;20102;-77
2024/03/11 03:17:08;;;;;;;0.22;0.20;;;;;;;;;;10250596;28;20385;-76
2024/03/11 03:22:12;;;;;;;0.73;0.30;;;;;;;;;;10250019;28;20512;-76
2024/03/11 03:27:17;;;;;;;0.30;0.30;;;;;;;;;;10244915;28;20071;-77
2024/03/11 03:32:22;;;;;;;0.20;0.20;;;;;;;;;;10236115;28;20055;-76
2024/03/11 03:37:25;;;;;;;1.58;1.00;;;;;;;;;;10252763;28;20102;-77
2024/03/11 03:42:29;;;;;;;1.05;0.30;;;;;;;;;;10244016;28;20049;-75
2024/03/11 03:47:32;;;;;;;2.47;1.33;;;;;;;;;;10239304;28;20045;-78
2024/03/11 03:52:36;;;;;;;0.90;0.73;;;;;;;;;;10250724;28;20055;-77
2024/03/11 03:57:40;;;;;;;3.75;1.40;;;;;;;;;;10257854;28;20133;-77
2024/03/11 04:02:44;;;;;;;3.42;1.02;;;;;;;;;;10243421;28;20054;-76
2024/03/11 04:07:47;;;;;;;2.38;0.65;;;;;;;;;;10249617;28;20082;-77
2024/03/11 04:12:53;;;;;;;4.55;1.05;;;;;;;;;;10250899;28;20070;-76
2024/03/11 04:17:55;;;;;;;1.52;0.68;;;;;;;;;;10241523;28;20047;-76
2024/03/11 04:22:59;;;;;;;0.97;0.60;;;;;;;;;;10235140;28;20094;-77
2024/03/11 04:28:05;;;;;;;4.85;0.55;;;;;;;;;;10261911;28;20054;-76
2024/03/11 04:33:08;;;;;;;0.95;0.43;;;;;;;;;;10237623;28;20050;-76
2024/03/11 04:38:15;;;;;;;0.43;0.43;;;;;;;;;;10256687;28;20078;-77
2024/03/11 04:43:20;;;;;;;0.45;0.20;;;;;;;;;;10237197;28;20051;-76
2024/03/11 04:48:24;;;;;;;0.40;0.20;;;;;;;;;;10258211;28;20027;-76
2024/03/11 04:53:28;;;;;;;0.82;0.50;;;;;;;;;;10253017;28;20227;-75
2024/03/11 04:58:33;;;;;;;1.13;0.45;;;;;;;;;;10244351;28;20488;-77
2024/03/11 05:03:36;;;;;;;0.47;0.47;;;;;;;;;;10246804;28;20098;-76
2024/03/11 05:08:46;;;;;;;2.05;0.43;;;;;;;;;;10253990;28;20133;-76
2024/03/11 05:13:51;;;;;;;3.03;1.10;;;;;;;;;;10252126;28;20599;-76
2024/03/11 05:18:54;;;;;;;3.53;1.20;;;;;;;;;;10251493;28;20035;-76
2024/03/11 05:23:58;;;;;;;4.67;0.93;;;;;;;;;;10257251;28;20066;-77
2024/03/11 05:29:02;;;;;;;0.88;0.50;;;;;;;;;;10254798;28;20051;-77
2024/03/11 05:34:05;;;;;;;1.67;0.55;;;;;;;;;;10254968;28;20057;-76
2024/03/11 05:39:09;;;;;;;1.65;1.13;;;;;;;;;;10255823;28;20034;-76
2024/03/11 05:44:15;;;;;;;3.03;0.98;;;;;;;;;;10251557;28;20523;-76
2024/03/11 05:49:19;;;;;;;0.40;0.30;;;;;;;;;;10249985;28;20106;-77
2024/03/11 05:54:24;;;;;;;0.50;0.50;;;;;;;;;;10258324;28;20055;-77
2024/03/11 05:59:29;;;;;;;0.82;0.40;;;;;;;;;;10261627;28;20053;-78
2024/03/11 06:04:32;;;;;;;1.85;0.50;;;;;;;;;;10261060;28;20106;-78
2024/03/11 06:09:36;;;;;;;0.38;0.15;;;;;;;;;;10267902;28;20054;-77
2024/03/11 06:14:39;;;;;;;;;;;;;;;;;;10265275;28;20035;-76
2024/03/11 06:19:44;;;;;;;1.88;0.80;;;;;;;;;;10262335;28;19926;-77
2024/03/11 06:24:49;;;;;;;3.67;1.33;;;;;;;;;;10257769;28;20043;-77
2024/03/11 06:29:53;;;;;;;4.93;2.08;;;;;;;;;;10251229;28;20061;-76
2024/03/11 06:35:00;;;;;;;1.95;1.00;;;;;;;;;;10257235;28;20053;-76
2024/03/11 06:40:04;;;;;;;1.92;1.05;;;;;;;;;;10260087;28;20407;-76
2024/03/11 06:45:08;;;;;;;1.48;0.50;;;;;;;;;;10251665;28;20187;-77
2024/03/11 06:50:13;;;;;;;0.47;0.43;;;;;;;;;;10247524;28;20034;-77
2024/03/11 06:55:17;;;;;;;1.38;0.80;;;;;;;;;;10261486;28;20114;-77
2024/03/11 07:00:27;;;;;;;2.15;1.10;;;;;;;;;;10250274;28;20066;-78
2024/03/11 07:05:32;;;;;;;3.38;1.13;;;;;;;;;;10254367;28;20070;-78
2024/03/11 07:10:38;;;;;;;1.00;0.68;;;;;;;;;;10240796;28;20054;-75
2024/03/11 07:15:41;;;;;;;3.63;1.10;;;;;;;;;;10245992;28;20077;-76
2024/03/11 07:20:46;;;;;;;1.10;0.77;;;;;;;;;;10248293;28;20746;-76
2024/03/11 07:25:53;;;;;;;0.73;0.68;;;;;;;;;;10249930;28;20046;-77
2024/03/11 07:30:56;;;;;;;3.40;0.60;;;;;;;;;;10253799;28;20057;-77
2024/03/11 07:36:00;;;;;;;2.13;0.60;;;;;;;;;;10252292;28;20139;-77
2024/03/11 07:41:06;;;;;;;1.88;1.00;;;;;;;;;;10243031;28;20488;-77
2024/03/11 07:46:10;;;;;;;1.52;0.82;;;;;;;;;;10244109;28;20062;-78
2024/03/11 07:51:17;;;;;;;0.88;0.55;;;;;;;;;;10247178;28;20051;-77
2024/03/11 07:56:20;;;;;;;3.00;1.42;;;;;;;;;;10242618;28;20392;-78
2024/03/11 08:01:22;;;;;;;2.60;1.20;;;;;;;;;;10253325;28;20039;-77
2024/03/11 08:06:27;;;;;;;0.77;0.77;;;;;;;;;;10253080;28;20134;-77
2024/03/11 08:11:31;;;;;;;2.65;1.00;;;;;;;;;;10241581;28;20070;-78
2024/03/11 08:16:34;;;;;;;1.17;1.08;;;;;;;;;;10246487;28;20107;-77
2024/03/11 08:21:40;;;;;;;1.42;1.15;;;;;;;;;;10242340;28;20058;-78
2024/03/11 08:26:44;;;;;;;3.03;1.13;;;;;;;;;;10243518;28;20040;-77
2024/03/11 08:31:49;;;;;;;1.77;0.98;;;;;;;;;;10242624;28;20051;-78
2024/03/11 08:36:53;;;;;;;2.05;0.98;;;;;;;;;;10251100;28;20171;-77
2024/03/11 08:41:57;;;;;;;2.13;1.05;;;;;;;;;;10247542;28;20129;-77
2024/03/11 08:47:02;;;;;;;1.13;1.02;;;;;;;;;;10250602;28;20503;-78
2024/03/11 08:52:15;;;;;;;2.63;1.40;;;;;;;;;;10252553;28;20815;-78
2024/03/11 08:57:19;;;;;;;3.22;1.10;;;;;;;;;;10242856;28;20137;-78
2024/03/11 09:02:23;;;;;;;1.83;1.25;;;;;;;;;;10258388;28;20050;-78
2024/03/11 09:07:28;;;;;;;3.88;1.35;;;;;;;;;;10230437;28;20488;-79
2024/03/11 09:12:32;;;;;;;1.60;1.00;;;;;;;;;;10243426;28;20113;-78
2024/03/11 09:17:41;;;;;;;1.83;1.30;;;;;;;;;;10244574;28;20487;-77
2024/03/11 09:22:46;;;;;;;1.45;1.10;;;;;;;;;;10239622;28;20448;-78
2024/03/11 09:27:55;;;;;;;1.45;1.35;;;;;;;;;;10242598;28;20051;-78
2024/03/11 09:32:59;;;;;;;3.90;1.48;;;;;;;;;;10244615;28;20121;-80
2024/03/11 09:38:07;;;;;;;1.52;1.42;;;;;;;;;;10244991;28;20039;-79
2024/03/11 09:43:12;;;;;;;1.08;1.08;;;;;;;;;;10247795;28;20055;-78
2024/03/11 09:48:17;;;;;;;1.45;1.35;;;;;;;;;;10248973;28;20053;-78
2024/03/11 09:53:27;;;;;;;1.33;1.23;;;;;;;;;;10250260;28;20046;-79
2024/03/11 09:58:32;;;;;;;2.63;1.50;;;;;;;;;;10223229;28;20043;-79
2024/03/11 10:03:36;;;;;;;4.78;2.20;;;;;;;;;;10248945;28;20043;-80
2024/03/11 10:08:45;;;;;;;1.42;1.30;;;;;;;;;;10251772;28;20126;-79
2024/03/11 10:13:52;;;;;;;1.27;1.20;;;;;;;;;;10248188;28;20059;-79
2024/03/11 10:19:00;;;;;;;2.13;1.40;;;;;;;;;;10258776;28;20109;-78
2024/03/11 10:24:10;;;;;;;7.03;1.30;;;;;;;;;;10247472;28;20047;-80
2024/03/11 10:29:16;;;;;;;4.03;1.00;;;;;;;;;;10252129;28;20113;-78
2024/03/11 10:34:21;;;;;;;0.82;0.82;;;;;;;;;;10252055;28;20050;-78
2024/03/11 10:39:37;;;;;;;1.00;1.00;;;;;;;;;;10249303;28;21961;-78
2024/03/11 10:44:42;;;;;;;1.75;1.00;;;;;;;;;;10249354;28;20110;-79
2024/03/11 10:49:47;;;;;;;3.92;1.33;;;;;;;;;;10255094;28;20133;-78
2024/03/11 10:54:54;;;;;;;2.42;1.10;;;;;;;;;;10247818;28;20030;-79
2024/03/11 11:00:09;;;;;;;1.37;1.20;;;;;;;;;;10258590;28;20047;-79
2024/03/11 11:05:15;;;;;;;1.40;1.30;;;;;;;;;;10247347;28;20043;-80
2024/03/11 11:10:21;;;;;;;1.70;1.30;;;;;;;;;;10249735;28;20051;-79
2024/03/11 11:15:26;;;;;;;1.30;0.90;;;;;;;;;;10250245;28;20085;-78
2024/03/11 11:20:37;;;;;;;3.78;1.30;;;;;;;;;;10249132;28;20058;-79
2024/03/11 11:25:44;;;;;;;1.98;0.73;;;;;;;;;;10247724;28;20424;-78
2024/03/11 11:30:48;;;;;;;5.80;0.75;;;;;;;;;;10246635;28;20467;-83
2024/03/11 11:35:51;;;;;;;3.08;1.33;;;;;;;;;;10226666;28;20133;-79
2024/03/11 11:40:56;;;;;;;4.22;1.20;;;;;;;;;;10248943;28;20062;-79
2024/03/11 11:46:00;;;;;;;1.33;1.20;;;;;;;;;;10242882;28;20099;-79
2024/03/11 11:51:04;;;;;;;1.63;1.25;;;;;;;;;;10246698;28;20078;-79
2024/03/11 11:56:10;;;;;;;1.15;0.80;;;;;;;;;;10247395;28;20047;-79
2024/03/11 12:01:13;;;;;;;1.83;0.70;;;;;;;;;;10225058;28;20055;-79
2024/03/11 12:06:20;;;;;;;2.50;0.98;;;;;;;;;;10245692;28;20070;-79
2024/03/11 12:11:27;;;;;;;1.90;0.80;;;;;;;;;;10229059;28;20302;-80
2024/03/11 12:16:30;;;;;;;1.23;1.00;;;;;;;;;;10248918;28;20320;-79
2024/03/11 12:21:35;;;;;;;1.60;0.70;;;;;;;;;;10244757;28;20058;-79
2024/03/11 12:26:41;;;;;;;1.27;0.60;;;;;;;;;;10240239;28;20061;-78
2024/03/11 12:31:52;;;;;;;2.45;0.80;;;;;;;;;;10248365;28;20560;-78
2024/03/11 12:37:00;;;;;;;1.10;0.77;;;;;;;;;;10247007;28;20178;-80
2024/03/11 12:42:08;;;;;;;1.70;0.90;;;;;;;;;;10228428;28;20567;-77
2024/03/11 12:47:14;;;;;;;1.08;0.90;;;;;;;;;;10245113;28;20042;-79
2024/03/11 12:52:18;;;;;;;2.92;1.10;;;;;;;;;;10245993;28;20047;-79
2024/03/11 12:57:24;;;;;;;0.75;0.73;;;;;;;;;;10242706;28;20594;-78
2024/03/11 13:02:27;;;;;;;4.10;1.50;;;;;;;;;;10229742;28;20055;-78
2024/03/11 13:07:33;;;;;;;1.00;0.80;;;;;;;;;;10246099;28;20058;-79
2024/03/11 13:12:39;;;;;;;1.90;0.98;;;;;;;;;;10253845;28;20047;-78
2024/03/11 13:17:42;;;;;;;1.73;1.00;;;;;;;;;;10247756;28;20397;-78
2024/03/11 13:22:46;;;;;;;5.30;0.90;;;;;;;;;;10251071;28;20145;-78
2024/03/11 13:27:56;;;;;;;1.50;0.77;;;;;;;;;;10248049;28;20051;-79
2024/03/11 13:33:00;;;;;;;1.23;0.80;;;;;;;;;;10251358;28;20480;-78
2024/03/11 13:38:03;;;;;;;0.57;0.52;;;;;;;;;;10256501;28;20038;-79
2024/03/11 13:43:11;;;;;;;5.40;0.73;;;;;;;;;;10250091;28;20145;-78
2024/03/11 13:48:14;;;;;;;1.88;0.70;;;;;;;;;;10231550;28;20049;-78
2024/03/11 13:53:17;;;;;;;1.02;0.50;;;;;;;;;;10256052;28;20496;-79
2024/03/11 13:58:24;;;;;;;1.48;0.60;;;;;;;;;;10234914;28;20793;-77
2024/03/11 14:03:29;;;;;;;2.17;0.70;;;;;;;;;;10247597;28;20199;-78
2024/03/11 14:08:35;;;;;;;0.70;0.60;;;;;;;;;;10225829;28;20110;-78
2024/03/11 14:13:40;;;;;;;0.57;0.32;;;;;;;;;;10249016;28;20083;-78
2024/03/11 14:18:47;;;;;;;1.88;0.70;;;;;;;;;;10252105;28;20468;-78
2024/03/11 14:23:50;;;;;;;0.85;0.60;;;;;;;;;;10234320;28;20190;-79
2024/03/11 14:28:55;;;;;;;1.45;0.50;;;;;;;;;;10228232;28;20050;-78
2024/03/11 14:34:02;;;;;;;0.70;0.50;;;;;;;;;;10249005;28;20121;-78
2024/03/11 14:39:16;;;;;;;2.47;0.65;;;;;;;;;;10253907;28;20443;-78
2024/03/11 14:44:22;;;;;;;2.40;0.70;;;;;;;;;;10250088;28;20408;-78
2024/03/11 14:49:27;;;;;;;0.40;0.40;;;;;;;;;;10216348;28;20491;-76
2024/03/11 14:54:30;;;;;;;0.80;0.60;;;;;;;;;;10244808;28;20062;-78
2024/03/11 14:59:36;;;;;;;1.20;0.40;;;;;;;;;;10240717;28;20440;-78
2024/03/11 15:04:43;;;;;;;0.47;0.40;;;;;;;;;;10244327;28;20109;-79
2024/03/11 15:09:46;;;;;;;1.57;0.87;;;;;;;;;;10251016;28;20189;-78
2024/03/11 15:14:55;;;;;;;0.55;0.55;;;;;;;;;;10256809;28;20059;-79
2024/03/11 15:19:57;;;;;;;0.73;0.43;;;;;;;;;;10257830;28;20065;-78
2024/03/11 15:25:01;;;;;;;0.45;0.40;;;;;;;;;;10249703;28;20058;-77
2024/03/11 15:30:10;;;;;;;1.38;0.85;;;;;;;;;;10230849;28;20480;-78
2024/03/11 15:35:14;;;;;;;0.50;0.40;;;;;;;;;;10236260;28;20055;-78
2024/03/11 15:40:17;;;;;;;1.23;0.80;;;;;;;;;;10249288;28;20146;-78
2024/03/11 15:45:23;;;;;;;1.15;0.68;;;;;;;;;;10245916;28;20065;-78
2024/03/11 15:50:29;;;;;;;0.75;0.47;;;;;;;;;;10244750;28;20054;-79
2024/03/11 15:55:32;;;;;;;0.63;0.52;;;;;;;;;;10234949;28;20047;-78
2024/03/11 16:00:37;;;;;;;0.57;0.43;;;;;;;;;;10246618;28;20445;-78
2024/03/11 16:05:42;;;;;;;2.13;0.70;;;;;;;;;;10227800;28;20049;-79
2024/03/11 16:10:45;;;;;;;5.18;1.85;;;;;;;;;;10243333;28;20070;-78
2024/03/11 16:15:51;;;;;;;1.30;0.82;;;;;;;;;;10233290;28;20065;-78
2024/03/11 16:20:55;;;;;;;0.88;0.70;;;;;;;;;;10234991;28;20566;-79
2024/03/11 16:25:57;;;;;;;;;;;;;;;;;;10250534;28;20047;-78
2024/03/11 16:31:04;;;;;;;3.70;0.60;;;;;;;;;;10244837;28;19930;-78
2024/03/11 16:36:09;;;;;;;1.45;1.08;;;;;;;;;;10245251;28;20130;-77
2024/03/11 16:41:12;;;;;;;0.95;0.50;;;;;;;;;;10240053;28;20126;-78
2024/03/11 16:46:19;;;;;;;1.13;0.60;;;;;;;;;;10234025;28;20043;-77
2024/03/11 16:51:22;;;;;;;1.35;0.70;;;;;;;;;;10244907;28;20133;-76
2024/03/11 16:56:29;;;;;;;0.82;0.68;;;;;;;;;;10258368;28;20050;-78
2024/03/11 17:01:36;;;;;;;5.38;1.00;;;;;;;;;;10252783;28;20133;-77
2024/03/11 17:06:40;;;;;;;5.72;1.50;;;;;;;;;;10248396;28;20533;-77
2024/03/11 17:11:44;;;;;;;4.43;1.30;;;;;;;;;;10245249;28;20645;-77
2024/03/11 17:16:47;;;;;;;;;;;;;;;;;;10258196;28;20577;-78
2024/03/11 17:21:53;;;;;;;3.40;0.70;;;;;;;;;;10244087;28;19921;-77
2024/03/11 17:26:59;;;;;;;2.92;0.77;;;;;;;;;;10250130;28;20125;-77
2024/03/11 17:32:03;;;;;;;1.35;0.80;;;;;;;;;;10251518;28;20047;-76
2024/03/11 17:37:08;;;;;;;5.32;1.08;;;;;;;;;;10232883;28;20039;-76
2024/03/11 17:42:13;;;;;;;4.90;1.20;;;;;;;;;;10235008;28;20510;-77
2024/03/11 17:47:20;;;;;;;2.63;1.08;;;;;;;;;;10256708;28;20232;-76
2024/03/11 17:52:25;;;;;;;4.60;1.13;;;;;;;;;;10263646;28;20163;-76
2024/03/11 17:57:28;;;;;;;2.50;0.90;;;;;;;;;;10252901;28;20141;-77
2024/03/11 18:02:34;;;;;;;5.20;1.00;;;;;;;;;;10244905;28;20051;-77
2024/03/11 18:07:38;;;;;;;3.63;1.58;;;;;;;;;;10238649;28;20403;-77
2024/03/11 18:12:43;;;;;;;2.75;1.77;;;;;;;;;;10231222;28;20054;-77
2024/03/11 18:17:46;;;;;;;6.03;1.48;;;;;;;;;;10252111;28;20082;-78
2024/03/11 18:22:52;;;;;;;4.47;1.60;;;;;;;;;;10250999;28;20523;-78
2024/03/11 18:27:58;;;;;;;2.08;1.40;;;;;;;;;;10249161;28;20198;-77
2024/03/11 18:33:04;;;;;;;3.15;1.60;;;;;;;;;;10238482;28;20038;-77
2024/03/11 18:38:09;;;;;;;6.10;1.85;;;;;;;;;;10233959;28;20039;-79
2024/03/11 18:43:14;;;;;;;5.30;1.63;;;;;;;;;;10247813;28;20097;-78
2024/03/11 18:48:25;;;;;;;3.17;1.80;;;;;;;;;;10236833;28;20552;-79
2024/03/11 18:53:43;;;;;;;2.57;1.50;;;;;;;;;;10250149;28;20146;-78
2024/03/11 18:58:46;;;;;;;3.80;1.90;;;;;;;;;;10237044;28;20138;-75
2024/03/11 19:03:51;;;;;;;5.00;2.20;;;;;;;;;;10229504;28;20058;-77
2024/03/11 19:08:57;;;;;;;3.95;2.00;;;;;;;;;;10245537;28;20038;-77
2024/03/11 19:14:02;;;;;;;1.35;0.95;;;;;;;;;;10247548;28;20089;-76
2024/03/11 19:19:09;;;;;;;1.73;0.98;;;;;;;;;;10250628;28;20202;-77
2024/03/11 19:24:21;;;;;;;2.55;1.35;;;;;;;;;;10262712;28;20070;-78
2024/03/11 19:29:26;;;;;;;1.98;1.20;;;;;;;;;;10184842;28;20544;-77
2024/03/11 19:34:29;;;;;;;2.22;1.50;;;;;;;;;;10249844;28;20055;-76
2024/03/11 19:39:43;;;;;;;2.30;1.57;;;;;;;;;;10230928;28;20065;-77
2024/03/11 19:44:48;;;;;;;;;;;;;;;;;;10226824;28;20077;-77
2024/03/11 19:50:27;;;;;;;3.72;1.80;;;;;;;;;;10240103;28;20073;-77
2024/03/11 19:55:51;;;;;;;3.83;1.80;;;;;;;;;;10124562;29;20048;-77
2024/03/11 20:01:18;;;;;;;3.85;1.60;;;;;;;;;;10230897;28;20156;-76
2024/03/11 20:06:40;;;;;;;4.80;1.92;;;;;;;;;;10240678;28;20046;-77
2024/03/11 20:12:02;;;;;;;6.85;2.08;;;;;;;;;;10246895;28;20035;-75
2024/03/11 20:17:20;;;;;;;5.53;2.72;;;;;;;;;;10247681;28;20070;-77
2024/03/11 20:22:45;;;;;;;6.22;2.78;;;;;;;;;;10250830;28;20054;-77
2024/03/11 20:27:55;;;;;;;4.88;2.17;;;;;;;;;;10244781;28;20637;-77
2024/03/11 20:33:23;;;;;;;5.18;2.22;;;;;;;;;;10242633;28;20538;-77
2024/03/11 20:38:29;;;;;;;4.05;2.45;;;;;;;;;;10242662;28;20508;-79
2024/03/11 20:43:32;;;;;;;4.75;1.90;;;;;;;;;;10250274;28;20652;-76
2024/03/11 20:48:36;;;;;;;5.40;2.23;;;;;;;;;;10240937;28;20046;-76
2024/03/11 20:53:53;;;;;;;10.97;2.17;;;;;;;;;;10251503;28;20130;-76
2024/03/11 20:58:56;;;;;;;4.07;2.40;;;;;;;;;;10242128;28;20401;-76
2024/03/11 21:03:59;;;;;;;6.93;2.50;;;;;;;;;;10221181;28;20048;-76
2024/03/11 21:09:07;;;;;;;7.00;2.13;;;;;;;;;;10245076;28;20039;-77
2024/03/11 21:14:11;;;;;;;6.03;2.22;;;;;;;;;;10231498;28;20054;-76
2024/03/11 21:19:22;;;;;;;2.57;1.30;;;;;;;;;;10270181;28;20396;-76
2024/03/11 21:24:39;;;;;;;2.00;1.38;;;;;;;;;;10263837;28;20058;-76
2024/03/11 21:29:43;;;;;;;2.80;1.75;;;;;;;;;;10254661;28;20043;-75
2024/03/11 21:34:46;;;;;;;2.65;1.70;;;;;;;;;;10272116;28;20109;-77
2024/03/11 21:39:54;;;;;;;5.10;1.75;;;;;;;;;;10274025;28;20543;-77
2024/03/11 21:44:58;;;;;;;4.65;1.77;;;;;;;;;;10271984;28;20496;-77
2024/03/11 21:50:01;;;;;;;3.13;1.70;;;;;;;;;;10269324;28;20034;-76
2024/03/11 21:55:07;;;;;;;1.60;1.27;;;;;;;;;;10269496;28;20106;-77
2024/03/11 22:00:16;;;;;;;3.28;1.50;;;;;;;;;;10255763;28;20068;-76
2024/03/11 22:05:19;;;;;;;2.10;1.15;;;;;;;;;;10270766;28;20050;-76
2024/03/11 22:10:24;;;;;;;3.50;1.63;;;;;;;;;;10255094;28;20050;-76
2024/03/11 22:15:26;;;;;;;3.78;1.85;;;;;;;;;;10283342;28;20310;-75
2024/03/11 22:20:30;;;;;;;1.40;1.17;;;;;;;;;;10291637;28;20101;-75
2024/03/11 22:25:35;;;;;;;4.07;1.63;;;;;;;;;;10295698;28;20034;-76
2024/03/11 22:30:38;;;;;;;2.97;1.75;;;;;;;;;;10280899;28;20043;-75
2024/03/11 22:35:45;;;;;;;6.45;1.77;;;;;;;;;;10280434;28;20133;-75
2024/03/11 22:40:50;;;;;;;5.80;2.08;;;;;;;;;;10278793;28;20138;-75
2024/03/11 22:45:56;;;;;;;2.50;1.80;;;;;;;;;;10265264;28;20047;-77
2024/03/11 22:50:59;;;;;;;5.03;1.60;;;;;;;;;;10283446;28;20049;-77
2024/03/11 22:56:06;;;;;;;2.47;1.30;;;;;;;;;;10283211;28;20180;-76
2024/03/11 23:01:14;;;;;;;2.95;1.80;;;;;;;;;;10284944;28;20055;-77
2024/03/11 23:06:18;;;;;;;3.53;1.80;;;;;;;;;;10273098;28;20140;-76
2024/03/11 23:11:24;;;;;;;3.25;1.52;;;;;;;;;;10269615;28;20051;-77
2024/03/11 23:16:27;;;;;;;3.83;1.45;;;;;;;;;;10285657;28;20104;-77
2024/03/11 23:21:30;;;;;;;2.17;1.00;;;;;;;;;;10287493;28;20111;-77
2024/03/11 23:26:34;;;;;;;1.33;0.70;;;;;;;;;;10283270;28;20047;-77
2024/03/11 23:31:43;;;;;;;2.60;1.40;;;;;;;;;;10266064;28;20490;-77
2024/03/11 23:36:48;;;;;;;2.42;1.45;;;;;;;;;;10279570;28;20516;-75
2024/03/11 23:41:54;;;;;;;;;;;;;;;;;;10272728;28;20050;-75
2024/03/11 23:46:59;;;;;;;2.33;1.40;;;;;;;;;;10254788;28;19922;-76
2024/03/11 23:52:05;;;;;;;1.77;0.80;;;;;;;;;;10276529;28;20126;-75
2024/03/11 23:57:08;;;;;;;3.17;1.58;;;;;;;;;;10268406;28;20462;-76
